createdAt,value
2022-11-22T00:01:18.842Z,1.60
2022-11-22T00:02:50.454Z,1.50
2022-11-22T00:04:22.002Z,1.60
2022-11-22T00:05:53.563Z,1.33
2022-11-22T00:07:25.198Z,1.65
2022-11-22T00:08:56.836Z,1.50
2022-11-22T00:10:28.372Z,1.50
2022-11-22T00:12:00.631Z,1.50
2022-11-22T00:13:32.605Z,1.42
2022-11-22T00:15:04.988Z,1.50
2022-11-22T00:16:36.523Z,1.40
2022-11-22T00:18:08.091Z,1.63
2022-11-22T00:19:39.653Z,1.35
2022-11-22T00:21:11.219Z,1.40
2022-11-22T00:22:44.726Z,1.70
2022-11-22T00:24:16.624Z,1.60
2022-11-22T00:25:48.275Z,1.85
2022-11-22T00:27:20.107Z,1.50
2022-11-22T00:28:51.691Z,1.50
2022-11-22T00:30:23.286Z,1.50
2022-11-22T00:31:54.832Z,1.40
2022-11-22T00:33:26.385Z,1.40
2022-11-22T00:34:57.937Z,1.60
2022-11-22T00:36:29.515Z,1.33
2022-11-22T00:38:01.057Z,1.70
2022-11-22T00:39:32.832Z,1.60
2022-11-22T00:41:04.579Z,1.63
2022-11-22T00:42:36.122Z,1.77
2022-11-22T00:44:07.682Z,1.38
2022-11-22T00:45:41.080Z,1.67
2022-11-22T00:47:12.678Z,1.70
2022-11-22T00:48:44.248Z,1.50
2022-11-22T00:50:16.098Z,1.65
2022-11-22T00:51:47.682Z,1.52
2022-11-22T00:53:19.352Z,1.70
2022-11-22T00:54:54.822Z,1.60
2022-11-22T00:56:26.840Z,1.60
2022-11-22T00:57:58.417Z,1.60
2022-11-22T00:59:30.444Z,1.50
2022-11-22T01:01:02.969Z,1.30
2022-11-22T01:02:34.557Z,1.63
2022-11-22T01:04:06.204Z,1.70
2022-11-22T01:05:37.849Z,1.80
2022-11-22T01:07:09.879Z,1.67
2022-11-22T01:08:41.459Z,1.70
2022-11-22T01:10:13.027Z,1.50
2022-11-22T01:11:44.642Z,1.67
2022-11-22T01:13:16.288Z,1.40
2022-11-22T01:14:47.852Z,1.70
2022-11-22T01:16:19.445Z,1.65
2022-11-22T01:17:51.500Z,1.58
2022-11-22T01:19:23.058Z,1.65
2022-11-22T01:20:54.698Z,1.30
2022-11-22T01:22:26.261Z,1.50
2022-11-22T01:23:57.819Z,1.38
2022-11-22T01:25:29.373Z,1.42
2022-11-22T01:27:00.911Z,1.40
2022-11-22T01:28:33.130Z,1.63
2022-11-22T01:30:05.233Z,1.30
2022-11-22T01:31:36.788Z,1.30
2022-11-22T01:33:08.987Z,1.55
2022-11-22T01:34:40.540Z,1.10
2022-11-22T01:36:12.179Z,1.50
2022-11-22T01:37:43.771Z,1.40
2022-11-22T01:39:15.308Z,1.37
2022-11-22T01:40:47.154Z,1.60
2022-11-22T01:42:18.702Z,1.48
2022-11-22T01:43:50.293Z,1.60
2022-11-22T01:45:30.926Z,1.60
2022-11-22T01:47:10.820Z,1.05
2022-11-22T01:49:20.364Z,1.60
2022-11-22T01:51:07.161Z,1.50
2022-11-22T01:52:38.700Z,1.40
2022-11-22T01:54:12.908Z,1.40
2022-11-22T01:55:44.542Z,1.40
2022-11-22T01:57:21.030Z,1.60
2022-11-22T01:58:55.611Z,1.40
2022-11-22T02:00:27.172Z,1.48
2022-11-22T02:01:58.722Z,1.60
2022-11-22T02:03:33.926Z,1.50
2022-11-22T02:05:10.548Z,1.42
2022-11-22T02:07:01.617Z,1.50
2022-11-22T02:08:45.089Z,1.50
2022-11-22T02:10:16.905Z,1.33
2022-11-22T02:11:50.455Z,1.55
2022-11-22T02:13:22.440Z,1.40
2022-11-22T02:14:54.157Z,1.33
2022-11-22T02:16:25.772Z,1.30
2022-11-22T02:17:57.484Z,1.58
2022-11-22T02:19:39.580Z,1.37
2022-11-22T02:21:11.141Z,1.50
2022-11-22T02:23:10.363Z,1.40
2022-11-22T02:24:49.956Z,1.20
2022-11-22T02:26:21.570Z,1.33
2022-11-22T02:27:53.153Z,1.35
2022-11-22T02:29:24.702Z,1.47
2022-11-22T02:30:56.257Z,1.60
2022-11-22T02:32:27.815Z,1.15
2022-11-22T02:34:01.780Z,1.30
2022-11-22T02:35:34.524Z,1.40
2022-11-22T02:37:06.073Z,1.20
2022-11-22T02:38:37.640Z,1.40
2022-11-22T02:40:09.628Z,1.40
2022-11-22T02:41:41.201Z,1.25
2022-11-22T02:43:18.387Z,1.40
2022-11-22T02:44:49.924Z,1.10
2022-11-22T02:46:21.478Z,1.35
2022-11-22T02:47:53.144Z,1.40
2022-11-22T02:49:24.817Z,1.27
2022-11-22T02:50:56.370Z,1.30
2022-11-22T02:52:27.927Z,1.13
2022-11-22T02:53:59.510Z,1.30
2022-11-22T02:55:31.060Z,1.42
2022-11-22T02:57:03.332Z,1.33
2022-11-22T02:58:35.284Z,1.25
2022-11-22T03:00:07.441Z,1.30
2022-11-22T03:01:39.064Z,1.35
2022-11-22T03:03:10.645Z,1.20
2022-11-22T03:04:42.214Z,1.30
2022-11-22T03:06:13.770Z,1.42
2022-11-22T03:07:45.514Z,1.50
2022-11-22T03:09:17.309Z,1.20
2022-11-22T03:10:48.864Z,1.20
2022-11-22T03:12:20.420Z,1.20
2022-11-22T03:13:52.052Z,1.15
2022-11-22T03:15:23.605Z,1.30
2022-11-22T03:16:55.160Z,1.20
2022-11-22T03:18:26.716Z,1.40
2022-11-22T03:19:58.316Z,1.30
2022-11-22T03:21:29.872Z,1.20
2022-11-22T03:23:01.796Z,1.27
2022-11-22T03:24:33.442Z,1.27
2022-11-22T03:26:09.147Z,1.20
2022-11-22T03:27:40.732Z,1.02
2022-11-22T03:29:12.393Z,1.40
2022-11-22T03:30:43.952Z,1.23
2022-11-22T03:32:15.556Z,1.10
2022-11-22T03:33:47.141Z,1.50
2022-11-22T03:35:18.748Z,1.00
2022-11-22T03:36:50.304Z,1.20
2022-11-22T03:38:21.860Z,1.30
2022-11-22T03:39:53.432Z,1.30
2022-11-22T03:41:24.982Z,1.15
2022-11-22T03:43:01.800Z,1.25
2022-11-22T03:44:33.355Z,1.20
2022-11-22T03:46:04.924Z,1.40
2022-11-22T03:47:36.471Z,1.15
2022-11-22T03:49:08.009Z,1.30
2022-11-22T03:50:39.780Z,1.30
2022-11-22T03:52:11.438Z,1.42
2022-11-22T03:53:43.086Z,1.48
2022-11-22T03:55:14.849Z,1.33
2022-11-22T03:56:46.393Z,1.08
2022-11-22T03:58:17.965Z,1.20
2022-11-22T03:59:49.523Z,1.20
2022-11-22T04:01:21.130Z,1.30
2022-11-22T04:02:52.779Z,1.30
2022-11-22T04:04:24.340Z,1.30
2022-11-22T04:05:55.896Z,1.10
2022-11-22T04:07:27.468Z,1.20
2022-11-22T04:08:59.125Z,1.33
2022-11-22T04:10:30.724Z,1.30
2022-11-22T04:12:02.285Z,1.25
2022-11-22T04:13:33.903Z,1.02
2022-11-22T04:15:05.864Z,1.10
2022-11-22T04:16:37.425Z,1.30
2022-11-22T04:18:10.161Z,1.20
2022-11-22T04:19:41.735Z,1.15
2022-11-22T04:21:13.290Z,1.30
2022-11-22T04:22:44.841Z,1.20
2022-11-22T04:24:16.406Z,1.23
2022-11-22T04:25:49.205Z,1.05
2022-11-22T04:27:20.762Z,1.13
2022-11-22T04:29:09.094Z,1.00
2022-11-22T04:30:41.499Z,1.10
2022-11-22T04:32:13.068Z,1.10
2022-11-22T04:33:44.622Z,1.10
2022-11-22T04:35:16.689Z,1.30
2022-11-22T04:36:48.242Z,1.38
2022-11-22T04:38:20.096Z,1.20
2022-11-22T04:39:51.662Z,1.40
2022-11-22T04:41:23.196Z,1.13
2022-11-22T04:42:54.756Z,0.80
2022-11-22T04:44:26.355Z,1.05
2022-11-22T04:46:00.705Z,1.30
2022-11-22T04:47:32.274Z,1.08
2022-11-22T04:49:03.985Z,1.20
2022-11-22T04:50:35.558Z,1.13
2022-11-22T04:52:07.084Z,1.20
2022-11-22T04:53:38.635Z,1.27
2022-11-22T04:55:10.307Z,1.10
2022-11-22T04:56:41.861Z,1.35
2022-11-22T04:58:13.650Z,1.00
2022-11-22T04:59:45.197Z,1.10
2022-11-22T05:01:17.175Z,1.30
2022-11-22T05:02:48.833Z,1.10
2022-11-22T05:04:20.373Z,1.27
2022-11-22T05:05:51.942Z,1.20
2022-11-22T05:07:23.514Z,1.20
2022-11-22T05:08:55.123Z,1.33
2022-11-22T05:10:27.406Z,1.00
2022-11-22T05:11:59.057Z,1.00
2022-11-22T05:13:33.177Z,1.10
2022-11-22T05:15:05.266Z,1.10
2022-11-22T05:16:36.867Z,1.17
2022-11-22T05:18:08.409Z,1.08
2022-11-22T05:19:41.817Z,1.10
2022-11-22T05:21:16.405Z,1.10
2022-11-22T05:22:47.962Z,1.10
2022-11-22T05:24:19.517Z,1.20
2022-11-22T05:25:51.100Z,1.40
2022-11-22T05:27:22.657Z,1.30
2022-11-22T05:28:54.328Z,1.23
2022-11-22T05:30:25.896Z,1.20
2022-11-22T05:31:57.480Z,1.00
2022-11-22T05:33:29.031Z,1.20
2022-11-22T05:35:00.619Z,0.98
2022-11-22T05:36:32.981Z,1.17
2022-11-22T05:38:04.529Z,1.30
2022-11-22T05:39:36.094Z,1.20
2022-11-22T05:41:09.439Z,1.05
2022-11-22T05:42:40.997Z,1.10
2022-11-22T05:44:12.626Z,1.10
2022-11-22T05:45:44.176Z,1.00
2022-11-22T05:47:15.756Z,1.17
2022-11-22T05:48:47.548Z,1.25
2022-11-22T05:50:19.109Z,1.40
2022-11-22T05:51:59.114Z,1.27
2022-11-22T05:53:30.733Z,1.40
2022-11-22T05:55:02.337Z,1.25
2022-11-22T05:56:33.886Z,1.55
2022-11-22T05:58:05.440Z,4.60
2022-11-22T05:59:42.557Z,9.13
2022-11-22T06:01:22.723Z,8.85
2022-11-22T06:02:54.304Z,7.50
2022-11-22T06:04:25.847Z,5.70
2022-11-22T06:05:59.583Z,5.40
2022-11-22T06:07:31.261Z,5.45
2022-11-22T06:09:02.960Z,5.10
2022-11-22T06:10:34.544Z,4.95
2022-11-22T06:12:06.297Z,5.03
2022-11-22T06:13:39.695Z,4.75
2022-11-22T06:15:11.257Z,4.40
2022-11-22T06:16:42.829Z,4.47
2022-11-22T06:18:14.396Z,4.20
2022-11-22T06:19:45.949Z,4.25
2022-11-22T06:21:20.040Z,4.20
2022-11-22T06:22:51.603Z,3.85
2022-11-22T06:24:23.217Z,4.00
2022-11-22T06:26:05.653Z,3.75
2022-11-22T06:27:37.216Z,3.47
2022-11-22T06:29:09.464Z,3.63
2022-11-22T06:30:41.080Z,3.20
2022-11-22T06:32:12.611Z,3.50
2022-11-22T06:33:44.347Z,3.33
2022-11-22T06:35:15.891Z,3.63
2022-11-22T06:36:47.420Z,3.30
2022-11-22T06:38:19.007Z,3.10
2022-11-22T06:39:50.541Z,3.00
2022-11-22T06:41:26.636Z,2.97
2022-11-22T06:42:58.183Z,2.72
2022-11-22T06:44:29.731Z,2.90
2022-11-22T06:46:01.853Z,3.05
2022-11-22T06:47:33.399Z,3.10
2022-11-22T06:49:04.998Z,2.90
2022-11-22T06:50:36.541Z,2.80
2022-11-22T06:52:08.118Z,2.83
2022-11-22T06:53:47.354Z,2.67
2022-11-22T06:55:48.631Z,2.63
2022-11-22T06:57:13.545Z,2.58
2022-11-22T06:58:45.293Z,2.40
2022-11-22T07:00:17.089Z,2.70
2022-11-22T07:01:48.749Z,2.47
2022-11-22T07:03:20.382Z,2.60
2022-11-22T07:05:23.258Z,2.45
2022-11-22T07:06:43.487Z,2.80
2022-11-22T07:08:15.092Z,2.47
2022-11-22T14:39:46.055Z,2.70
2022-11-22T14:41:26.486Z,2.67
2022-11-22T14:43:02.227Z,2.58
2022-11-22T14:44:33.821Z,2.53
2022-11-22T14:46:37.195Z,2.60
2022-11-22T14:48:11.801Z,2.77
2022-11-22T14:49:45.460Z,2.65
2022-11-22T14:51:31.936Z,2.10
2022-11-22T14:53:32.148Z,2.33
2022-11-22T14:55:05.938Z,2.60
2022-11-22T14:56:37.503Z,2.70
2022-11-22T14:58:12.401Z,2.50
2022-11-22T15:00:06.087Z,2.50
2022-11-22T15:01:40.463Z,2.80
2022-11-22T15:03:30.752Z,2.63
2022-11-22T15:09:13.283Z,2.60
2022-11-22T15:09:18.206Z,2.55
2022-11-22T15:10:08.160Z,2.80
2022-11-22T15:11:42.436Z,2.30
2022-11-22T15:13:38.602Z,2.72
2022-11-22T15:58:12.324Z,2.10
2022-11-22T15:59:44.863Z,2.40
2022-11-22T16:01:20.612Z,2.23
2022-11-22T16:02:59.812Z,2.30
2022-11-22T16:04:34.637Z,2.40
2022-11-22T16:06:12.058Z,2.20
2022-11-22T16:07:48.107Z,2.08
2022-11-22T16:09:38.151Z,2.27
2022-11-22T16:11:19.526Z,2.03
2022-11-22T16:12:51.749Z,2.50
2022-11-22T16:14:42.497Z,2.05
2022-11-22T16:16:14.111Z,2.38
2022-11-22T16:17:49.668Z,2.25
2022-11-22T16:19:24.888Z,2.20
2022-11-22T16:21:03.476Z,2.30
2022-11-22T16:22:35.297Z,2.75
2022-11-22T16:24:16.527Z,3.25
2022-11-22T16:25:49.801Z,3.20
2022-11-22T16:27:21.681Z,3.50
2022-11-22T16:28:53.702Z,3.70
2022-11-22T16:30:25.569Z,4.40
2022-11-22T16:32:12.730Z,8.02
2022-11-22T16:33:44.969Z,11.55
2022-11-22T16:35:29.140Z,16.60
2022-11-22T16:37:03.014Z,15.43
2022-11-22T16:38:34.974Z,16.63
2022-11-22T16:40:07.782Z,16.00
2022-11-22T16:41:39.778Z,15.32
2022-11-22T16:43:22.477Z,15.45
2022-11-22T16:44:57.246Z,16.10
2022-11-22T16:46:31.601Z,14.05
2022-11-22T16:48:30.723Z,14.30
2022-11-22T16:50:03.553Z,14.45
2022-11-22T16:51:35.476Z,14.00
2022-11-22T16:53:15.023Z,15.85
2022-11-22T16:54:57.063Z,14.98
2022-11-22T16:56:30.138Z,14.37
2022-11-22T16:58:23.163Z,15.75
2022-11-22T16:59:56.284Z,16.60
2022-11-22T17:01:30.624Z,14.98
2022-11-22T17:03:02.573Z,15.85
2022-11-22T17:04:39.461Z,14.95
2022-11-22T17:06:17.161Z,15.60
2022-11-22T17:07:49.291Z,14.18
2022-11-22T17:09:22.188Z,13.00
2022-11-22T17:10:54.998Z,13.75
2022-11-22T17:12:33.541Z,12.90
2022-11-22T17:14:06.030Z,12.85
2022-11-22T17:15:40.643Z,13.20
2022-11-22T17:17:12.794Z,11.40
2022-11-22T17:18:45.596Z,12.70
2022-11-22T17:20:17.842Z,12.10
2022-11-22T17:21:49.751Z,11.63
2022-11-22T17:23:36.582Z,11.60
2022-11-22T17:25:12.687Z,11.63
2022-11-22T17:26:46.061Z,11.32
2022-11-22T17:28:18.967Z,11.50
2022-11-22T17:29:51.934Z,10.23
2022-11-22T17:31:23.794Z,11.03
2022-11-22T17:32:56.208Z,10.60
2022-11-22T17:34:28.959Z,9.75
2022-11-22T17:36:01.572Z,10.43
2022-11-22T17:37:33.728Z,11.85
2022-11-22T17:39:09.019Z,12.07
2022-11-22T17:40:42.521Z,11.32
2022-11-22T17:42:16.029Z,10.30
2022-11-22T17:43:51.164Z,10.32
2022-11-22T17:45:24.002Z,10.15
2022-11-22T17:46:56.423Z,9.13
2022-11-22T17:48:28.467Z,9.37
2022-11-22T17:50:00.912Z,10.00
2022-11-22T17:51:33.281Z,9.02
2022-11-22T17:53:07.110Z,9.05
2022-11-22T17:54:38.849Z,8.38
2022-11-22T17:56:11.752Z,8.32
2022-11-22T17:57:44.347Z,8.43
2022-11-22T17:59:16.342Z,7.90
2022-11-22T18:00:48.699Z,8.45
2022-11-22T18:02:22.107Z,7.93
2022-11-22T18:03:55.186Z,7.95
2022-11-22T18:05:28.490Z,7.88
2022-11-22T18:07:01.984Z,7.38
2022-11-22T18:08:34.551Z,7.30
2022-11-22T18:10:07.699Z,7.40
2022-11-22T18:11:41.193Z,7.17
2022-11-22T18:13:21.156Z,7.60
2022-11-22T18:14:53.924Z,6.80
2022-11-22T18:16:26.457Z,7.05
2022-11-22T18:17:58.508Z,7.25
2022-11-22T18:19:30.905Z,6.63
2022-11-22T18:21:04.555Z,7.03
2022-11-22T18:22:36.659Z,6.83
2022-11-22T18:24:11.173Z,6.60
2022-11-22T18:25:43.814Z,6.47
2022-11-22T18:27:16.143Z,6.40
2022-11-22T18:29:09.357Z,6.10
2022-11-22T18:30:43.791Z,6.53
2022-11-22T18:32:16.198Z,5.90
2022-11-22T18:33:48.502Z,5.78
2022-11-22T18:35:21.931Z,5.50
2022-11-22T18:37:00.383Z,5.90
2022-11-22T18:38:36.126Z,6.38
2022-11-22T18:40:10.091Z,5.85
2022-11-22T18:41:42.620Z,5.78
2022-11-22T18:43:14.807Z,6.28
2022-11-22T18:44:47.537Z,5.55
2022-11-22T18:46:20.056Z,5.90
2022-11-22T18:47:52.146Z,5.70
2022-11-22T18:49:26.008Z,5.50
2022-11-22T18:51:07.671Z,5.40
2022-11-22T18:52:40.085Z,5.50
2022-11-22T18:54:15.702Z,5.32
2022-11-22T18:55:48.520Z,5.22
2022-11-22T18:57:20.694Z,5.10
2022-11-22T18:58:53.300Z,5.25
2022-11-22T19:00:25.984Z,4.97
2022-11-22T19:02:00.734Z,5.25
2022-11-22T19:03:33.457Z,5.88
2022-11-22T19:05:06.032Z,5.03
2022-11-22T19:06:38.593Z,5.05
2022-11-22T19:08:11.311Z,4.93
2022-11-22T19:09:43.509Z,4.80
2022-11-22T19:11:15.796Z,5.13
2022-11-22T19:12:51.264Z,5.18
2022-11-22T19:14:23.868Z,4.97
2022-11-22T19:15:56.298Z,4.82
2022-11-22T19:17:29.770Z,4.63
2022-11-22T19:19:03.761Z,4.43
2022-11-22T19:22:29.164Z,4.47
2022-11-22T19:24:01.586Z,4.85
2022-11-22T19:25:36.484Z,4.85
2022-11-22T19:27:09.029Z,4.53
2022-11-22T19:28:42.459Z,4.78
2022-11-22T19:30:15.793Z,4.70
2022-11-22T19:31:48.001Z,4.55
2022-11-22T19:33:20.026Z,4.60
2022-11-22T19:34:52.643Z,4.40
2022-11-22T19:36:32.716Z,4.50
2022-11-22T19:38:05.668Z,4.43
2022-11-22T19:39:37.906Z,4.80
2022-11-22T19:41:11.266Z,4.60
2022-11-22T19:42:43.278Z,4.30
2022-11-22T19:44:17.806Z,4.40
2022-11-22T19:45:50.691Z,4.45
2022-11-22T19:47:23.291Z,4.33
2022-11-22T19:48:57.524Z,4.50
2022-11-22T19:50:30.045Z,4.30
2022-11-22T19:52:02.586Z,4.68
2022-11-22T19:53:36.378Z,4.45
2022-11-22T19:55:09.134Z,4.43
2022-11-22T19:56:41.525Z,4.15
2022-11-22T19:58:14.069Z,4.30
2022-11-22T19:59:46.713Z,4.35
2022-11-22T20:01:19.415Z,4.00
2022-11-22T20:02:51.540Z,4.50
2022-11-22T20:04:24.005Z,4.10
2022-11-22T20:06:00.646Z,4.25
2022-11-22T20:07:33.964Z,4.20
2022-11-22T20:09:10.891Z,3.90
2022-11-22T20:10:43.506Z,4.07
2022-11-22T20:12:15.484Z,3.97
2022-11-22T20:13:49.411Z,3.92
2022-11-22T20:15:21.981Z,3.87
2022-11-22T20:16:53.687Z,4.00
2022-11-22T20:18:26.329Z,4.00
2022-11-22T20:19:58.745Z,4.05
2022-11-22T20:21:31.935Z,3.83
2022-11-22T20:23:04.151Z,4.13
2022-11-22T20:24:36.786Z,3.83
2022-11-22T20:26:12.650Z,3.80
2022-11-22T20:27:45.222Z,3.80
2022-11-22T20:29:17.826Z,3.95
2022-11-22T20:30:50.276Z,3.92
2022-11-22T20:32:22.888Z,3.85
2022-11-22T20:33:55.659Z,4.03
2022-11-22T20:35:27.827Z,4.00
2022-11-22T20:37:00.877Z,3.67
2022-11-22T20:38:37.228Z,3.55
2022-11-22T20:40:10.640Z,3.65
2022-11-22T20:41:42.818Z,3.47
2022-11-22T20:43:17.266Z,3.78
2022-11-22T20:44:49.931Z,3.75
2022-11-22T20:46:24.572Z,3.72
2022-11-22T20:47:57.110Z,3.80
2022-11-22T20:49:29.598Z,3.78
2022-11-22T20:51:02.630Z,4.00
2022-11-22T20:52:35.015Z,3.58
2022-11-22T20:54:07.516Z,3.50
2022-11-22T20:55:40.541Z,3.42
